createdAt,value
2022-12-08T00:01:42.991Z,29.33
2022-12-08T00:04:10.833Z,30.13
2022-12-08T00:07:00.461Z,30.17
2022-12-08T00:09:39.663Z,29.77
2022-12-08T00:12:16.414Z,28.80
2022-12-08T00:14:44.505Z,27.90
2022-12-08T00:17:12.832Z,28.33
2022-12-08T00:19:39.943Z,27.13
2022-12-08T00:22:07.568Z,25.30
2022-12-08T00:24:35.532Z,27.60
2022-12-08T00:27:02.947Z,26.73
2022-12-08T00:29:30.052Z,26.03
2022-12-08T00:31:57.324Z,25.97
2022-12-08T00:34:24.620Z,24.97
2022-12-08T00:36:51.758Z,25.40
2022-12-08T00:39:19.051Z,25.37
2022-12-08T00:42:04.955Z,24.97
2022-12-08T00:44:32.050Z,25.60
2022-12-08T00:46:59.288Z,25.23
2022-12-08T00:49:26.772Z,24.73
2022-12-08T00:51:53.935Z,24.20
2022-12-08T00:54:21.137Z,24.50
2022-12-08T00:56:48.297Z,25.07
2022-12-08T00:59:15.868Z,25.30
2022-12-08T01:01:44.304Z,25.50
2022-12-08T01:04:12.752Z,25.17
2022-12-08T01:06:40.238Z,25.47
2022-12-08T01:09:07.813Z,25.63
2022-12-08T01:11:35.393Z,25.60
2022-12-08T01:14:02.641Z,25.13
2022-12-08T01:16:31.131Z,26.17
2022-12-08T01:18:59.291Z,26.40
2022-12-08T01:21:26.688Z,24.80
2022-12-08T01:23:53.920Z,25.53
2022-12-08T01:26:21.431Z,25.93
2022-12-08T01:28:48.826Z,25.17
2022-12-08T01:31:17.471Z,25.10
2022-12-08T01:33:44.687Z,25.50
2022-12-08T01:36:20.555Z,27.47
2022-12-08T01:38:47.661Z,25.77
2022-12-08T01:41:16.183Z,25.37
2022-12-08T01:43:55.075Z,26.37
2022-12-08T01:46:22.353Z,25.00
2022-12-08T01:48:50.334Z,25.40
2022-12-08T01:51:17.888Z,25.60
2022-12-08T01:53:45.231Z,27.10
2022-12-08T01:56:16.243Z,25.83
2022-12-08T01:58:45.863Z,26.33
2022-12-08T02:01:13.143Z,25.40
2022-12-08T02:04:09.472Z,25.87
2022-12-08T02:06:40.583Z,26.40
2022-12-08T02:09:08.029Z,25.83
2022-12-08T02:11:35.115Z,24.53
2022-12-08T02:14:02.681Z,26.20
2022-12-08T02:16:42.208Z,27.53
2022-12-08T02:19:30.703Z,25.03
2022-12-08T02:22:00.907Z,25.37
2022-12-08T02:24:46.575Z,25.10
2022-12-08T02:27:13.708Z,24.40
2022-12-08T02:29:53.505Z,26.07
2022-12-08T02:32:39.300Z,25.07
2022-12-08T02:35:15.671Z,25.33
2022-12-08T02:37:46.698Z,25.50
2022-12-08T02:40:25.382Z,24.17
2022-12-08T02:43:02.074Z,23.93
2022-12-08T02:45:31.923Z,25.90
2022-12-08T02:47:59.434Z,25.17
2022-12-08T02:50:26.841Z,25.53
2022-12-08T02:52:54.003Z,26.97
2022-12-08T02:55:21.124Z,25.90
2022-12-08T02:57:48.195Z,24.40
2022-12-08T03:00:15.819Z,25.00
2022-12-08T03:02:51.897Z,25.30
2022-12-08T03:05:37.680Z,24.60
2022-12-08T03:08:27.592Z,23.60
2022-12-08T03:11:20.989Z,23.93
2022-12-08T03:13:50.630Z,23.60
2022-12-08T03:16:20.642Z,23.70
2022-12-08T03:18:53.676Z,22.80
2022-12-08T03:21:21.215Z,24.77
2022-12-08T03:23:50.821Z,24.23
2022-12-08T03:26:26.107Z,23.80
2022-12-08T03:28:53.332Z,24.87
2022-12-08T03:31:20.721Z,24.43
2022-12-08T03:33:51.067Z,21.87
2022-12-08T03:36:18.497Z,23.83
2022-12-08T03:38:46.556Z,23.47
2022-12-08T03:41:20.093Z,22.97
2022-12-08T03:43:47.939Z,24.03
2022-12-08T03:46:15.963Z,24.57
2022-12-08T03:48:43.157Z,23.60
2022-12-08T03:51:10.752Z,23.50
2022-12-08T03:53:38.093Z,24.70
2022-12-08T03:56:06.636Z,22.07
2022-12-08T03:58:37.403Z,23.40
2022-12-08T04:01:04.840Z,21.30
2022-12-08T04:03:31.923Z,21.67
2022-12-08T04:05:59.021Z,22.50
2022-12-08T04:08:26.166Z,21.43
2022-12-08T04:10:53.335Z,22.53
2022-12-08T04:13:20.428Z,21.47
2022-12-08T04:15:47.820Z,22.40
2022-12-08T04:18:15.137Z,21.97
2022-12-08T04:20:45.890Z,20.70
2022-12-08T04:23:13.201Z,21.90
2022-12-08T04:25:40.645Z,22.30
2022-12-08T04:28:07.735Z,22.47
2022-12-08T04:30:35.124Z,22.80
2022-12-08T04:33:02.209Z,21.90
2022-12-08T04:35:29.361Z,21.27
2022-12-08T04:37:56.717Z,22.00
2022-12-08T04:40:24.126Z,21.33
2022-12-08T04:42:51.200Z,22.97
2022-12-08T04:45:18.367Z,21.53
2022-12-08T04:47:45.699Z,21.73
2022-12-08T04:50:13.135Z,21.63
2022-12-08T04:52:40.448Z,21.63
2022-12-08T04:55:07.695Z,20.07
2022-12-08T04:57:34.800Z,21.77
2022-12-08T05:00:02.230Z,21.73
2022-12-08T05:02:29.705Z,19.77
2022-12-08T05:04:56.827Z,19.63
2022-12-08T05:07:23.906Z,20.53
2022-12-08T05:09:51.000Z,20.27
2022-12-08T05:12:18.070Z,20.37
2022-12-08T05:14:45.147Z,21.07
2022-12-08T05:17:12.203Z,18.67
2022-12-08T05:19:39.285Z,17.37
2022-12-08T05:22:06.356Z,19.40
2022-12-08T05:24:33.454Z,19.17
2022-12-08T05:27:00.555Z,18.77
2022-12-08T05:29:28.180Z,19.37
2022-12-08T05:31:55.407Z,19.70
2022-12-08T05:34:22.538Z,19.07
2022-12-08T05:36:49.622Z,20.03
2022-12-08T05:39:16.694Z,19.67
2022-12-08T05:41:43.752Z,20.07
2022-12-08T05:44:10.844Z,19.43
2022-12-08T05:46:37.962Z,19.83
2022-12-08T05:49:05.116Z,19.40
2022-12-08T05:51:32.270Z,18.63
2022-12-08T05:53:59.449Z,19.03
2022-12-08T05:56:26.713Z,19.67
2022-12-08T05:58:53.928Z,18.67
2022-12-08T06:01:25.142Z,18.63
2022-12-08T06:03:52.508Z,19.40
2022-12-08T06:06:20.246Z,18.73
2022-12-08T06:08:47.377Z,18.83
2022-12-08T06:11:20.552Z,18.73
2022-12-08T06:13:47.767Z,17.37
2022-12-08T06:16:14.882Z,17.90
2022-12-08T06:18:42.132Z,17.40
2022-12-08T06:21:10.909Z,17.80
2022-12-08T06:23:38.089Z,18.23
2022-12-08T06:26:06.221Z,18.27
2022-12-08T06:28:33.750Z,19.07
2022-12-08T06:31:00.918Z,18.90
2022-12-08T06:33:28.036Z,19.23
2022-12-08T06:35:55.121Z,17.70
2022-12-08T06:38:22.200Z,18.30
2022-12-08T06:40:55.747Z,18.23
2022-12-08T06:43:23.122Z,19.37
2022-12-08T06:45:50.351Z,18.37
2022-12-08T06:48:17.574Z,18.17
2022-12-08T06:50:45.019Z,18.30
2022-12-08T06:53:13.243Z,17.87
2022-12-08T06:56:02.562Z,17.37
2022-12-08T06:58:29.708Z,18.40
2022-12-08T07:00:56.819Z,18.10
2022-12-08T07:03:24.002Z,19.20
2022-12-08T07:05:51.155Z,16.33
2022-12-08T07:08:18.323Z,17.30
2022-12-08T07:10:45.406Z,18.40
2022-12-08T07:13:12.545Z,17.50
2022-12-08T07:15:39.676Z,17.33
2022-12-08T07:18:06.777Z,17.57
2022-12-08T07:20:33.850Z,17.80
2022-12-08T07:23:00.932Z,18.33
2022-12-08T07:25:28.007Z,17.53
2022-12-08T07:27:55.090Z,16.70
2022-12-08T07:30:22.238Z,15.97
2022-12-08T07:32:49.333Z,15.77
2022-12-08T07:35:16.564Z,15.33
2022-12-08T07:37:43.635Z,15.33
2022-12-08T07:40:11.039Z,16.60
2022-12-08T07:42:38.165Z,16.77
2022-12-08T07:45:05.426Z,16.33
2022-12-08T07:47:32.534Z,16.00
2022-12-08T07:49:59.663Z,14.93
2022-12-08T07:52:26.782Z,17.03
2022-12-08T07:54:53.868Z,19.97
2022-12-08T07:57:20.938Z,16.73
2022-12-08T07:59:48.046Z,17.80
2022-12-08T08:02:24.837Z,20.33
2022-12-08T08:04:53.267Z,16.90
2022-12-08T08:07:20.497Z,17.67
2022-12-08T08:09:47.588Z,17.43
2022-12-08T08:12:31.752Z,16.07
2022-12-08T08:14:59.919Z,15.43
2022-12-08T08:17:27.096Z,14.90
2022-12-08T08:19:54.394Z,14.87
2022-12-08T08:22:21.482Z,15.23
2022-12-08T08:24:48.589Z,14.00
2022-12-08T08:27:15.828Z,15.47
2022-12-08T08:29:42.904Z,14.07
2022-12-08T08:32:10.036Z,13.70
2022-12-08T08:34:37.152Z,14.77
2022-12-08T08:37:04.563Z,14.57
2022-12-08T08:39:31.985Z,13.67
2022-12-08T08:41:59.216Z,13.20
2022-12-08T08:44:26.330Z,12.07
2022-12-08T08:46:53.547Z,13.47
2022-12-08T08:49:21.338Z,13.10
2022-12-08T08:51:48.581Z,12.50
2022-12-08T08:54:15.676Z,15.90
2022-12-08T08:56:42.746Z,14.27
2022-12-08T08:59:10.546Z,15.13
2022-12-08T09:01:37.815Z,12.03
2022-12-08T09:04:05.011Z,11.93
2022-12-08T09:06:32.285Z,12.07
2022-12-08T09:08:59.474Z,12.20
2022-12-08T09:11:26.618Z,12.77
2022-12-08T09:13:54.103Z,11.67
2022-12-08T09:16:21.923Z,11.70
2022-12-08T09:18:49.596Z,11.63
2022-12-08T09:21:22.350Z,11.30
2022-12-08T09:23:50.685Z,12.93
2022-12-08T09:26:17.838Z,12.47
2022-12-08T09:28:46.620Z,11.63
2022-12-08T09:31:14.443Z,11.53
2022-12-08T09:33:41.684Z,12.27
2022-12-08T09:36:09.279Z,11.33
2022-12-08T09:38:36.376Z,11.37
2022-12-08T09:41:05.065Z,12.27
2022-12-08T09:43:32.173Z,10.43
2022-12-08T09:45:59.638Z,11.60
2022-12-08T09:48:32.576Z,11.13
2022-12-08T09:50:59.687Z,11.37
2022-12-08T09:53:35.116Z,10.77
2022-12-08T09:56:19.804Z,10.53
2022-12-08T09:58:59.013Z,10.93
2022-12-08T10:01:33.079Z,11.20
2022-12-08T10:04:01.041Z,11.10
2022-12-08T10:06:40.345Z,11.87
2022-12-08T10:09:25.985Z,10.93
2022-12-08T10:11:56.139Z,9.63
2022-12-08T10:14:27.670Z,10.47
2022-12-08T10:16:57.114Z,10.77
2022-12-08T10:19:25.713Z,10.87
2022-12-08T10:21:53.769Z,10.33
2022-12-08T10:24:32.242Z,10.43
2022-12-08T10:26:59.801Z,11.03
2022-12-08T10:29:26.863Z,11.83
2022-12-08T10:31:54.074Z,11.60
2022-12-08T10:34:24.524Z,10.67
2022-12-08T10:36:53.206Z,10.67
2022-12-08T10:39:29.245Z,10.93
2022-12-08T10:42:01.252Z,11.97
2022-12-08T10:44:28.330Z,10.70
2022-12-08T10:46:55.521Z,11.80
2022-12-08T10:49:32.398Z,11.40
2022-12-08T10:51:59.481Z,14.37
2022-12-08T10:54:44.649Z,14.03
2022-12-08T10:57:20.500Z,10.47
2022-12-08T10:59:47.577Z,11.53
2022-12-08T11:02:21.039Z,11.57
2022-12-08T11:04:48.448Z,10.30
2022-12-08T11:07:22.075Z,11.13
2022-12-08T11:09:50.812Z,10.77
2022-12-08T11:12:19.186Z,10.40
2022-12-08T11:14:46.268Z,10.97
2022-12-08T11:17:18.427Z,10.87
2022-12-08T11:19:47.005Z,10.83
2022-12-08T11:22:24.995Z,10.67
2022-12-08T11:24:59.952Z,11.40
2022-12-08T11:27:27.321Z,10.83
2022-12-08T11:29:54.460Z,10.43
2022-12-08T11:32:22.007Z,9.80
2022-12-08T11:35:01.347Z,12.13
2022-12-08T11:37:35.427Z,13.60
2022-12-08T11:40:05.719Z,11.30
2022-12-08T11:42:36.511Z,10.97
2022-12-08T11:45:07.149Z,11.30
2022-12-08T11:48:06.789Z,11.23
2022-12-08T11:51:00.207Z,10.43
2022-12-08T11:53:30.973Z,9.93
2022-12-08T11:55:59.160Z,9.90
2022-12-08T11:58:30.004Z,9.63
2022-12-08T12:00:57.998Z,10.23
2022-12-08T12:03:42.606Z,10.73
2022-12-08T12:06:53.187Z,10.40
2022-12-08T12:09:31.387Z,11.30
2022-12-08T12:12:13.638Z,10.47
2022-12-08T12:14:58.995Z,10.60
2022-12-08T12:17:26.066Z,10.80
2022-12-08T12:19:54.352Z,11.53
2022-12-08T12:22:22.627Z,11.67
2022-12-08T12:24:51.038Z,11.30
2022-12-08T12:27:28.624Z,10.27
2022-12-08T12:29:58.963Z,11.97
2022-12-08T12:32:26.867Z,10.93
2022-12-08T12:34:55.782Z,11.73
2022-12-08T12:37:25.078Z,11.50
2022-12-08T12:40:03.189Z,11.23
2022-12-08T12:42:38.797Z,11.40
2022-12-08T12:45:17.861Z,11.13
2022-12-08T12:47:51.020Z,10.80
2022-12-08T12:50:34.983Z,11.90
2022-12-08T12:53:07.915Z,11.37
2022-12-08T12:55:46.970Z,10.83
2022-12-08T12:58:31.962Z,10.10
2022-12-08T13:01:11.514Z,10.93
2022-12-08T13:03:39.714Z,10.30
2022-12-08T13:06:11.395Z,10.13
2022-12-08T13:08:42.966Z,10.50
2022-12-08T13:11:10.772Z,11.00
2022-12-08T13:13:38.577Z,10.30
2022-12-08T13:16:19.068Z,10.67
2022-12-08T13:18:51.618Z,10.23
2022-12-08T13:21:23.048Z,10.30
2022-12-08T13:23:50.147Z,9.40
2022-12-08T13:26:27.041Z,8.90
2022-12-08T13:29:01.322Z,9.87
2022-12-08T13:31:37.525Z,9.40
2022-12-08T13:34:08.400Z,9.60
2022-12-08T13:36:40.720Z,9.63
2022-12-08T13:39:08.068Z,9.43
2022-12-08T13:41:43.758Z,9.33
2022-12-08T13:47:32.015Z,10.10
2022-12-08T13:59:08.191Z,8.80
2022-12-08T14:01:40.560Z,9.40
2022-12-08T14:04:37.530Z,8.17
2022-12-08T14:07:02.540Z,9.00
2022-12-08T14:09:33.842Z,9.30
2022-12-08T14:12:06.572Z,9.70
2022-12-08T14:17:23.231Z,8.53
2022-12-08T14:20:00.573Z,9.37
2022-12-08T14:22:38.558Z,9.00
2022-12-08T14:25:06.944Z,9.97
2022-12-08T14:27:38.268Z,9.40
2022-12-08T14:30:16.431Z,8.50
2022-12-08T14:33:03.811Z,8.70
2022-12-08T14:35:32.238Z,8.73
2022-12-08T14:38:03.983Z,9.27
2022-12-08T14:40:35.305Z,9.27
2022-12-08T14:43:13.490Z,8.87
2022-12-08T14:45:43.570Z,8.03
2022-12-08T14:48:22.667Z,9.13
2022-12-08T14:50:58.066Z,9.17
2022-12-08T14:53:25.686Z,8.63
2022-12-08T14:55:53.039Z,8.30
2022-12-08T14:58:27.670Z,8.50
2022-12-08T15:00:58.331Z,9.37
2022-12-08T15:03:30.082Z,8.53
2022-12-08T15:05:58.389Z,9.20
2022-12-08T15:08:25.552Z,9.00
2022-12-08T15:11:11.632Z,8.90
2022-12-08T15:13:44.577Z,8.97
2022-12-08T15:16:32.013Z,8.53
2022-12-08T15:19:03.851Z,9.63
2022-12-08T15:21:33.239Z,9.13
2022-12-08T15:24:00.333Z,9.83
2022-12-08T15:26:28.265Z,9.13
2022-12-08T15:28:55.889Z,9.23
2022-12-08T15:31:23.100Z,10.17
2022-12-08T15:33:50.254Z,10.10
2022-12-08T15:36:17.390Z,10.27
2022-12-08T15:38:44.502Z,9.57
2022-12-08T15:41:14.851Z,9.87
2022-12-08T15:43:42.565Z,9.70
2022-12-08T15:46:09.752Z,9.60
2022-12-08T15:48:37.978Z,9.93
2022-12-08T15:51:05.141Z,10.10
2022-12-08T15:53:32.276Z,10.27
2022-12-08T15:58:56.473Z,10.23
2022-12-08T16:01:24.669Z,9.97
2022-12-08T16:09:30.513Z,10.67
2022-12-08T16:12:21.238Z,11.70
2022-12-08T16:17:35.950Z,9.97
2022-12-08T16:20:03.402Z,9.57
2022-12-08T16:25:20.723Z,10.03
2022-12-08T16:30:36.840Z,10.50
2022-12-08T16:33:04.038Z,10.70
2022-12-08T16:35:31.286Z,9.73
2022-12-08T16:37:58.419Z,9.43
2022-12-08T16:40:25.616Z,9.27
2022-12-08T16:42:52.994Z,8.83
2022-12-08T16:45:27.919Z,9.60
2022-12-08T16:47:56.627Z,9.50
2022-12-08T16:50:23.696Z,9.67
2022-12-08T16:52:51.338Z,9.67
2022-12-08T16:55:19.403Z,10.40
2022-12-08T16:57:47.277Z,9.83
2022-12-08T17:00:24.421Z,10.20
2022-12-08T17:02:52.991Z,9.90
2022-12-08T17:05:21.091Z,9.73
2022-12-08T17:07:49.861Z,9.43
2022-12-08T17:10:19.057Z,9.20
2022-12-08T17:12:46.614Z,9.33
2022-12-08T17:15:14.668Z,9.30
2022-12-08T17:17:42.294Z,9.03
2022-12-08T17:20:12.330Z,8.07
2022-12-08T17:22:39.467Z,7.73
2022-12-08T17:25:06.872Z,7.63
2022-12-08T17:27:34.250Z,7.87
2022-12-08T17:30:01.334Z,7.30
2022-12-08T17:32:28.503Z,7.83
2022-12-08T17:34:55.699Z,7.87
2022-12-08T17:37:22.801Z,7.73
2022-12-08T17:39:49.914Z,8.27
2022-12-08T17:42:17.019Z,8.33
2022-12-08T17:44:46.531Z,7.70
2022-12-08T17:47:13.670Z,7.63
2022-12-08T17:49:40.799Z,8.30
2022-12-08T17:52:08.044Z,8.00
2022-12-08T17:54:36.429Z,8.37
2022-12-08T17:57:03.840Z,8.03
2022-12-08T17:59:31.123Z,7.83
2022-12-08T18:01:58.486Z,8.33
2022-12-08T18:04:26.026Z,8.47
2022-12-08T18:06:53.149Z,7.93
2022-12-08T18:09:20.361Z,8.00
2022-12-08T18:11:47.708Z,8.10
2022-12-08T18:14:15.147Z,8.37
2022-12-08T18:16:44.232Z,10.57
2022-12-08T18:19:12.041Z,8.33
2022-12-08T18:21:39.323Z,8.93
2022-12-08T18:24:06.701Z,8.93
2022-12-08T18:26:33.897Z,8.73
2022-12-08T18:29:01.084Z,9.17
2022-12-08T18:31:28.384Z,8.50
2022-12-08T18:33:55.591Z,11.83
2022-12-08T18:36:25.123Z,10.60
2022-12-08T18:38:53.235Z,10.20
2022-12-08T18:41:26.149Z,9.70
2022-12-08T18:43:54.050Z,10.17
2022-12-08T18:46:21.348Z,10.40
2022-12-08T18:48:49.835Z,9.50
2022-12-08T18:51:18.429Z,10.60
2022-12-08T18:53:46.132Z,11.13
2022-12-08T18:56:24.044Z,11.17
2022-12-08T18:58:51.166Z,11.47
2022-12-08T19:01:18.427Z,12.03
2022-12-08T19:03:58.515Z,13.23
2022-12-08T19:06:32.675Z,13.70
2022-12-08T19:08:59.794Z,13.77
2022-12-08T19:11:29.149Z,12.80
2022-12-08T19:13:56.527Z,12.63
2022-12-08T19:16:23.955Z,12.47
2022-12-08T19:18:51.298Z,12.57
2022-12-08T19:21:19.723Z,11.77
2022-12-08T19:23:47.532Z,17.00
2022-12-08T19:26:14.707Z,20.60
2022-12-08T19:28:41.838Z,22.43
2022-12-08T19:31:09.909Z,17.17
2022-12-08T19:33:37.646Z,15.43
2022-12-08T19:36:08.871Z,13.20
2022-12-08T19:38:56.045Z,12.50
2022-12-08T19:41:41.862Z,15.33
2022-12-08T19:44:36.538Z,13.07
2022-12-08T19:47:04.106Z,12.87
2022-12-08T19:49:31.300Z,13.30
2022-12-08T19:51:58.482Z,12.93
2022-12-08T19:54:25.813Z,12.93
2022-12-08T19:56:52.977Z,12.93
2022-12-08T19:59:20.421Z,13.23
2022-12-08T20:01:51.358Z,12.70
2022-12-08T20:04:18.571Z,13.40
2022-12-08T20:06:46.098Z,12.90
2022-12-08T20:09:13.565Z,13.17
2022-12-08T20:11:41.140Z,13.23
2022-12-08T20:14:08.336Z,12.63
2022-12-08T20:16:35.922Z,12.37
2022-12-08T20:19:03.553Z,12.27
2022-12-08T20:21:30.975Z,12.77
2022-12-08T20:23:58.132Z,12.50
2022-12-08T20:26:25.282Z,12.23
2022-12-08T20:28:52.760Z,12.70
2022-12-08T20:31:28.172Z,12.37
2022-12-08T20:33:55.598Z,12.37
2022-12-08T20:36:23.353Z,11.90
2022-12-08T20:38:51.784Z,12.77
2022-12-08T20:41:19.351Z,11.87
2022-12-08T20:43:47.405Z,12.60
2022-12-08T20:46:15.626Z,12.70
2022-12-08T20:48:43.576Z,12.73
2022-12-08T20:51:13.423Z,13.20
2022-12-08T20:53:40.502Z,13.27
2022-12-08T20:56:07.910Z,14.13
2022-12-08T20:58:35.056Z,13.07
2022-12-08T21:01:02.401Z,14.27
2022-12-08T21:03:29.727Z,15.50
2022-12-08T21:05:57.142Z,21.87
2022-12-08T21:08:25.962Z,20.60
2022-12-08T21:10:53.896Z,20.00
2022-12-08T21:13:21.235Z,19.60
2022-12-08T21:15:48.775Z,21.20
2022-12-08T21:18:17.049Z,18.97
2022-12-08T21:20:44.862Z,20.73
2022-12-08T21:23:12.351Z,19.47
2022-12-08T21:25:43.363Z,19.53
2022-12-08T21:28:10.583Z,18.13
2022-12-08T21:30:39.808Z,17.20
2022-12-08T21:33:07.228Z,16.50
2022-12-08T21:35:34.526Z,15.63
2022-12-08T21:38:02.539Z,15.23
2022-12-08T21:40:29.671Z,14.60
2022-12-08T21:42:56.940Z,15.17
2022-12-08T21:45:24.216Z,14.47
2022-12-08T21:47:51.624Z,15.03
2022-12-08T21:50:19.018Z,15.20
2022-12-08T21:52:47.616Z,15.20
2022-12-08T21:55:15.723Z,15.00
2022-12-08T21:57:43.497Z,15.57
2022-12-08T22:00:14.036Z,16.07
2022-12-08T22:02:41.372Z,15.77
2022-12-08T22:05:08.877Z,14.93
2022-12-08T22:07:38.809Z,15.57
2022-12-08T22:10:07.659Z,14.40
2022-12-08T22:12:35.908Z,15.40
2022-12-08T22:15:05.711Z,15.70
2022-12-08T22:17:36.426Z,14.73
2022-12-08T22:20:04.737Z,14.57
2022-12-08T22:22:33.674Z,14.77
2022-12-08T22:25:01.146Z,15.07
2022-12-08T22:27:28.307Z,14.07
2022-12-08T22:29:55.373Z,16.27
2022-12-08T22:32:22.801Z,16.20
2022-12-08T22:34:49.925Z,16.73
2022-12-08T22:37:17.160Z,15.57
2022-12-08T22:39:44.376Z,16.50
2022-12-08T22:42:11.644Z,16.53
2022-12-08T22:44:38.730Z,16.57
2022-12-08T22:47:05.910Z,15.87
2022-12-08T22:49:33.528Z,20.97
2022-12-08T22:52:00.565Z,23.67
2022-12-08T22:54:27.701Z,21.13
2022-12-08T22:56:55.259Z,19.83
2022-12-08T22:59:22.467Z,17.67
2022-12-08T23:01:49.621Z,16.33
2022-12-08T23:04:18.357Z,16.77
2022-12-08T23:06:45.719Z,20.90
2022-12-08T23:09:12.981Z,17.30
2022-12-08T23:11:40.641Z,16.90
2022-12-08T23:14:08.219Z,17.57
2022-12-08T23:16:35.431Z,17.23
2022-12-08T23:19:02.719Z,17.80
2022-12-08T23:21:29.857Z,16.93
2022-12-08T23:23:57.228Z,17.27
2022-12-08T23:26:26.739Z,17.53
2022-12-08T23:28:54.511Z,18.50
2022-12-08T23:31:21.726Z,18.43
2022-12-08T23:33:49.437Z,17.63
2022-12-08T23:36:17.829Z,18.50
2022-12-08T23:38:45.131Z,18.93
2022-12-08T23:41:14.277Z,18.67
2022-12-08T23:43:46.379Z,18.03
2022-12-08T23:46:14.403Z,19.53
2022-12-08T23:48:42.151Z,17.73
2022-12-08T23:51:09.476Z,18.33
2022-12-08T23:53:36.800Z,18.50
2022-12-08T23:56:08.262Z,18.73
2022-12-08T23:58:35.763Z,18.27
